Time;durP1;ratioP1;P1;durP2;ratioP2;P2;SDS_P1;SDS_P2;PMS_P1;PMS_P2;Temp;Humidity;BMP_temperature;BMP_pressure;BME280_temperature;BME280_humidity;BME280_pressure;Samples;Min_cycle;Max_cycle;Signal;HPM_P1;HPM_P2
2022/10/10 00:01:21;;;;;;;1.55;0.73;;;;;;;16.09;44.31;100502.72;4491553;31;32521;-65
2022/10/10 00:03:49;;;;;;;1.37;0.98;;;;;;;15.99;44.06;100503.50;4485354;31;33556;-65
2022/10/10 00:06:16;;;;;;;1.87;1.33;;;;;;;15.90;44.35;100506.97;4492086;31;32497;-65
2022/10/10 00:08:45;;;;;;;1.15;1.05;;;;;;;16.16;43.57;100503.88;4491275;31;34354;-65
2022/10/10 00:11:14;;;;;;;1.75;0.95;;;;;;;16.12;44.10;100499.75;4494405;31;35016;-64
2022/10/10 00:13:42;;;;;;;2.37;1.20;;;;;;;16.16;43.57;100498.50;4488369;31;33902;-64
2022/10/10 00:16:10;;;;;;;0.52;0.52;;;;;;;16.26;43.17;100499.41;4488720;31;33603;-63
2022/10/10 00:18:39;;;;;;;1.35;0.95;;;;;;;16.22;43.30;100487.16;4490301;31;33014;-64
2022/10/10 00:21:07;;;;;;;1.33;0.57;;;;;;;16.21;43.17;100493.53;4488101;31;33875;-64
2022/10/10 00:23:35;;;;;;;1.35;1.20;;;;;;;16.27;43.11;100495.69;4487911;31;33791;-66
2022/10/10 00:26:04;;;;;;;1.77;0.95;;;;;;;16.47;42.59;100496.69;4491933;31;34666;-64
2022/10/10 00:28:37;;;;;;;0.88;0.50;;;;;;;16.53;41.95;100494.31;4491168;31;33353;-65
2022/10/10 00:31:07;;;;;;;0.62;0.55;;;;;;;16.44;41.83;100497.81;4488360;31;34069;-65
2022/10/10 00:33:36;;;;;;;1.10;0.57;;;;;;;16.19;42.62;100492.81;4489778;31;32243;-64
2022/10/10 00:36:05;;;;;;;1.33;0.55;;;;;;;15.98;41.92;100480.16;4490536;31;33211;-64
2022/10/10 00:38:33;;;;;;;1.70;1.05;;;;;;;16.06;42.56;100488.47;4497201;31;32388;-64
2022/10/10 00:41:01;;;;;;;2.45;0.75;;;;;;;16.29;41.77;100480.22;4492074;31;32915;-65
2022/10/10 00:43:29;;;;;;;2.17;0.98;;;;;;;16.17;41.38;100478.59;4489887;31;33762;-65
2022/10/10 00:45:56;;;;;;;1.52;1.17;;;;;;;16.17;41.55;100478.59;4485039;31;32117;-65
2022/10/10 00:48:27;;;;;;;2.30;1.10;;;;;;;16.07;42.38;100479.38;4497318;31;34702;-65
2022/10/10 00:50:59;;;;;;;1.98;0.77;;;;;;;15.96;42.22;100471.34;4493492;31;33865;-65
2022/10/10 00:53:50;;;;;;;0.95;0.70;;;;;;;15.97;41.99;100464.97;4486756;31;34304;-65
2022/10/10 00:56:20;;;;;;;1.33;0.88;;;;;;;15.96;42.19;100462.41;4485122;31;33717;-65
2022/10/10 00:58:51;;;;;;;0.57;0.57;;;;;;;16.16;41.45;100466.06;4484898;31;32267;-65
2022/10/10 01:01:19;;;;;;;1.65;0.70;;;;;;;16.26;41.53;100461.59;4495036;31;33613;-65
2022/10/10 01:03:46;;;;;;;1.80;1.37;;;;;;;16.10;41.40;100461.22;4485191;31;33899;-65
2022/10/10 01:06:14;;;;;;;0.52;0.45;;;;;;;15.70;41.98;100451.16;4497600;31;33613;-66
2022/10/10 01:08:42;;;;;;;1.08;0.85;;;;;;;15.57;42.06;100449.44;4494488;31;34498;-65
2022/10/10 01:11:28;;;;;;;1.87;1.23;;;;;;;15.67;42.57;100448.69;4479617;31;33597;-66
2022/10/10 01:14:11;;;;;;;1.12;0.73;;;;;;;15.60;42.45;100451.00;4490288;31;33085;-66
2022/10/10 01:17:00;;;;;;;1.85;1.33;;;;;;;15.80;41.63;100449.38;4490771;31;35176;-66
2022/10/10 01:19:52;;;;;;;0.52;0.52;;;;;;;15.69;42.08;100454.81;4496566;31;34332;-64
2022/10/10 01:22:48;;;;;;;3.03;1.40;;;;;;;15.84;41.47;100453.50;4498670;31;33771;-65
2022/10/10 01:25:37;;;;;;;0.90;0.55;;;;;;;15.53;41.64;100447.97;4485365;31;33988;-65
2022/10/10 01:28:36;;;;;;;0.37;0.37;;;;;;;15.89;40.66;100453.09;4489558;31;35746;-65
2022/10/10 01:31:05;;;;;;;0.57;0.52;;;;;;;15.91;40.88;100445.72;4493285;31;33191;-65
2022/10/10 01:34:00;;;;;;;0.95;0.80;;;;;;;15.79;41.66;100448.50;4491726;31;32806;-65
2022/10/10 01:36:49;;;;;;;0.80;0.68;;;;;;;15.76;41.74;100437.97;4496224;31;32938;-65
2022/10/10 01:39:22;;;;;;;0.68;0.68;;;;;;;15.88;40.18;100441.44;4497700;31;33979;-65
2022/10/10 01:41:56;;;;;;;15.25;2.65;;;;;;;15.60;41.08;100446.50;4491153;31;34369;-65
2022/10/10 01:44:23;;;;;;;1.02;0.75;;;;;;;15.34;41.64;100437.00;4489355;31;33980;-64
2022/10/10 01:46:51;;;;;;;1.23;0.65;;;;;;;15.49;41.39;100437.56;4486656;31;35151;-64
2022/10/10 01:49:21;;;;;;;1.50;0.90;;;;;;;15.48;42.57;100439.44;4495602;31;33748;-65
2022/10/10 01:52:05;;;;;;;1.17;0.68;;;;;;;15.45;42.61;100444.22;4491002;31;33370;-65
2022/10/10 01:54:41;;;;;;;1.25;0.68;;;;;;;15.70;41.58;100434.94;4494264;31;33936;-65
2022/10/10 01:57:27;;;;;;;1.12;1.02;;;;;;;15.76;41.42;100439.78;4484746;31;33777;-65
2022/10/10 01:59:58;;;;;;;0.60;0.57;;;;;;;15.83;40.61;100439.16;4491522;31;35062;-65
2022/10/10 02:02:47;;;;;;;0.95;0.77;;;;;;;15.64;41.36;100452.47;4485845;31;33291;-65
2022/10/10 02:05:36;;;;;;;0.50;0.50;;;;;;;15.47;42.39;100451.19;4494650;31;34919;-65
2022/10/10 02:08:07;;;;;;;0.55;0.55;;;;;;;15.70;41.19;100443.03;4481267;31;33751;-65
2022/10/10 02:10:50;;;;;;;0.90;0.52;;;;;;;15.40;41.94;100444.59;4479719;31;34229;-65
2022/10/10 02:13:18;;;;;;;19.25;1.12;;;;;;;15.15;42.17;100435.00;4481551;31;33438;-65
2022/10/10 02:15:52;;;;;;;1.17;0.62;;;;;;;15.28;41.84;100438.41;4490358;31;35083;-66
2022/10/10 02:18:21;;;;;;;4.40;1.30;;;;;;;15.14;41.97;100441.38;4488238;31;34520;-65
2022/10/10 02:20:50;;;;;;;1.35;0.77;;;;;;;15.09;42.76;100441.78;4479465;31;33022;-65
2022/10/10 02:23:19;;;;;;;2.50;1.00;;;;;;;15.16;42.57;100436.72;4483120;31;32410;-65
2022/10/10 02:25:51;;;;;;;3.30;1.15;;;;;;;15.18;42.79;100434.75;4484136;31;35061;-65
2022/10/10 02:28:42;;;;;;;1.10;0.68;;;;;;;15.10;42.53;100432.69;4486406;31;32797;-65
2022/10/10 02:31:13;;;;;;;1.40;0.85;;;;;;;14.95;43.10;100441.19;4488716;31;33952;-66
2022/10/10 02:33:45;;;;;;;1.98;0.80;;;;;;;15.13;42.75;100436.97;4493396;31;34133;-65
2022/10/10 02:36:15;;;;;;;0.52;0.47;;;;;;;15.12;42.72;100440.66;4495113;31;33869;-65
2022/10/10 02:38:43;;;;;;;1.27;1.05;;;;;;;14.88;43.16;100447.06;4488456;31;34303;-65
2022/10/10 02:41:13;;;;;;;1.37;0.65;;;;;;;14.81;43.13;100440.47;4493096;31;34682;-66
2022/10/10 02:43:41;;;;;;;2.40;1.55;;;;;;;14.63;44.54;100439.25;4484217;31;34315;-65
2022/10/10 02:46:11;;;;;;;2.67;1.33;;;;;;;15.03;42.70;100441.44;4490591;31;35083;-65
2022/10/10 02:48:39;;;;;;;0.47;0.47;;;;;;;14.79;42.98;100442.44;4485795;31;34025;-66
2022/10/10 02:51:07;;;;;;;1.37;0.93;;;;;;;14.69;43.24;100441.47;4493220;31;35210;-65
2022/10/10 02:53:36;;;;;;;1.00;0.77;;;;;;;14.70;43.60;100445.00;4488243;31;33235;-65
2022/10/10 02:56:04;;;;;;;2.17;1.45;;;;;;;14.22;44.93;100438.00;4480904;31;33828;-65
2022/10/10 02:58:31;;;;;;;2.08;1.37;;;;;;;13.97;46.26;100445.31;4486899;31;34613;-65
2022/10/10 03:00:59;;;;;;;1.40;0.60;;;;;;;13.92;45.71;100433.19;4492082;31;34728;-65
2022/10/10 03:03:27;;;;;;;0.73;0.70;;;;;;;14.27;44.85;100427.72;4495529;31;34254;-65
2022/10/10 03:05:54;;;;;;;0.75;0.70;;;;;;;14.32;44.92;100430.09;4488451;31;34595;-65
2022/10/10 03:08:22;;;;;;;1.58;1.23;;;;;;;14.56;45.14;100429.97;4491797;31;32752;-65
2022/10/10 03:10:54;;;;;;;0.98;0.85;;;;;;;14.60;44.07;100434.13;4493073;31;33856;-65
2022/10/10 03:13:22;;;;;;;1.02;0.85;;;;;;;14.89;43.65;100429.06;4493860;31;33885;-64
2022/10/10 03:15:50;;;;;;;1.37;0.95;;;;;;;14.98;43.65;100435.53;4490608;31;35000;-65
2022/10/10 03:18:18;;;;;;;3.92;0.85;;;;;;;15.04;43.48;100435.03;4483652;31;33801;-65
2022/10/10 03:20:49;;;;;;;2.20;1.05;;;;;;;15.08;43.17;100431.94;4489499;31;33863;-65
2022/10/10 03:23:18;;;;;;;1.25;0.88;;;;;;;14.79;45.49;100431.66;4488838;31;33332;-64
2022/10/10 03:25:46;;;;;;;1.45;0.77;;;;;;;14.52;43.85;100428.50;4488220;31;34648;-64
2022/10/10 03:28:14;;;;;;;1.37;1.27;;;;;;;14.32;44.66;100422.00;4489508;31;32842;-65
2022/10/10 03:30:41;;;;;;;2.00;1.20;;;;;;;14.37;44.78;100425.16;4492226;31;32175;-65
2022/10/10 03:33:09;;;;;;;1.35;0.77;;;;;;;14.36;45.14;100428.84;4493140;31;31846;-63
2022/10/10 03:35:37;;;;;;;2.62;0.93;;;;;;;14.53;44.67;100430.22;4491071;31;33788;-65
2022/10/10 03:38:05;;;;;;;2.67;1.27;;;;;;;14.64;44.22;100430.22;4497517;31;32776;-65
2022/10/10 03:40:33;;;;;;;1.85;0.62;;;;;;;14.59;44.98;100427.88;4484036;31;33612;-67
2022/10/10 03:43:00;;;;;;;2.22;1.27;;;;;;;14.66;44.18;100429.09;4494986;31;34573;-66
2022/10/10 03:45:28;;;;;;;1.17;1.05;;;;;;;14.65;43.61;100427.37;4490519;31;33539;-64
2022/10/10 03:47:55;;;;;;;1.95;0.60;;;;;;;14.53;45.15;100430.22;4482298;31;33922;-64
2022/10/10 03:50:23;;;;;;;0.75;0.62;;;;;;;14.58;44.60;100428.03;4489012;31;34780;-65
2022/10/10 03:52:50;;;;;;;0.60;0.52;;;;;;;14.66;44.51;100426.41;4495958;31;33153;-65
2022/10/10 03:55:19;;;;;;;1.30;0.82;;;;;;;14.45;45.07;100422.72;4491916;31;33855;-65
2022/10/10 03:57:46;;;;;;;1.05;0.70;;;;;;;14.36;45.19;100424.31;4494059;31;32426;-65
2022/10/10 04:00:14;;;;;;;0.90;0.70;;;;;;;14.50;45.23;100422.34;4496178;31;33823;-65
2022/10/10 04:02:41;;;;;;;1.33;1.15;;;;;;;14.60;45.07;100416.13;4493497;31;33472;-66
2022/10/10 04:05:09;;;;;;;1.77;1.20;;;;;;;14.51;46.28;100424.09;4489926;31;32329;-65
2022/10/10 04:07:37;;;;;;;2.20;1.17;;;;;;;14.73;44.77;100420.50;4494359;31;34071;-64
2022/10/10 04:10:05;;;;;;;1.60;0.77;;;;;;;14.77;44.24;100411.22;4496779;31;33161;-64
2022/10/10 04:12:32;;;;;;;1.10;0.95;;;;;;;14.31;44.86;100422.97;4496265;31;33386;-65
2022/10/10 04:15:00;;;;;;;1.08;0.82;;;;;;;14.45;44.52;100417.34;4493795;31;33889;-66
2022/10/10 04:17:28;;;;;;;3.37;2.85;;;;;;;14.47;44.84;100415.38;4493484;31;33909;-66
2022/10/10 04:19:55;;;;;;;1.55;0.95;;;;;;;14.52;44.84;100415.03;4490869;31;32308;-67
2022/10/10 04:22:22;;;;;;;1.10;0.77;;;;;;;14.63;44.75;100413.19;4495312;31;34640;-66
2022/10/10 04:24:50;;;;;;;1.37;1.10;;;;;;;14.61;44.42;100417.00;4484900;31;32830;-67
2022/10/10 04:27:18;;;;;;;0.73;0.70;;;;;;;14.80;44.15;100411.81;4493025;31;34251;-66
2022/10/10 04:29:45;;;;;;;1.35;1.05;;;;;;;14.58;46.11;100417.25;4485281;31;34686;-66
2022/10/10 04:32:13;;;;;;;2.47;1.15;;;;;;;14.78;45.29;100419.16;4480922;31;33110;-65
2022/10/10 04:34:40;;;;;;;1.67;1.00;;;;;;;14.88;44.62;100424.66;4489274;31;33682;-66
2022/10/10 04:37:08;;;;;;;1.10;0.85;;;;;;;14.93;44.29;100414.38;4493186;31;34110;-65
2022/10/10 04:39:35;;;;;;;3.20;1.08;;;;;;;14.85;44.37;100414.13;4493980;31;33949;-66
2022/10/10 04:42:03;;;;;;;1.12;0.77;;;;;;;14.74;44.42;100419.56;4490627;31;132013;-66
2022/10/10 04:44:30;;;;;;;2.15;1.83;;;;;;;14.83;44.10;100416.09;4493162;31;35079;-66
2022/10/10 04:46:58;;;;;;;1.08;0.82;;;;;;;14.88;43.97;100430.03;4487754;31;33940;-64
2022/10/10 04:49:26;;;;;;;1.48;0.85;;;;;;;14.79;44.78;100430.78;4497845;31;34147;-66
2022/10/10 04:51:53;;;;;;;2.08;1.33;;;;;;;14.68;45.01;100419.06;4493400;31;32945;-66
2022/10/10 04:54:21;;;;;;;1.45;0.90;;;;;;;14.79;44.45;100423.56;4494205;31;33597;-66
2022/10/10 04:56:48;;;;;;;1.17;0.95;;;;;;;14.71;44.87;100430.59;4491538;31;34156;-66
2022/10/10 04:59:16;;;;;;;1.65;1.05;;;;;;;14.65;44.55;100423.84;4497684;31;32214;-66
2022/10/10 05:01:44;;;;;;;2.60;1.65;;;;;;;14.61;45.08;100430.47;4497017;31;34513;-66
2022/10/10 05:04:12;;;;;;;3.87;1.62;;;;;;;14.29;45.32;100433.00;4490328;31;33750;-67
2022/10/10 05:06:39;;;;;;;1.45;0.95;;;;;;;14.38;46.07;100426.87;4489166;31;34165;-65
2022/10/10 05:09:07;;;;;;;10.52;1.27;;;;;;;14.44;46.01;100434.47;4490040;31;33532;-65
2022/10/10 05:11:35;;;;;;;4.32;1.37;;;;;;;14.55;44.96;100429.12;4491897;31;34616;-66
2022/10/10 05:14:03;;;;;;;1.48;0.88;;;;;;;14.09;46.73;100427.37;4498330;31;32223;-65
2022/10/10 05:16:30;;;;;;;4.78;1.15;;;;;;;14.22;45.82;100424.53;4496005;31;32827;-66
2022/10/10 05:18:58;;;;;;;2.92;0.77;;;;;;;14.35;45.81;100429.81;4498221;31;32704;-65
2022/10/10 05:21:25;;;;;;;1.20;0.95;;;;;;;14.31;45.23;100425.66;4494386;31;32942;-65
2022/10/10 05:23:53;;;;;;;2.40;1.05;;;;;;;14.00;46.63;100425.41;4495898;31;33820;-65
2022/10/10 05:26:20;;;;;;;2.12;0.93;;;;;;;14.37;45.47;100430.56;4495864;31;34053;-66
2022/10/10 05:28:48;;;;;;;0.62;0.60;;;;;;;14.25;46.38;100426.13;4492388;31;33846;-66
2022/10/10 05:31:16;;;;;;;2.60;2.08;;;;;;;13.97;47.58;100437.25;4493652;31;34288;-65
2022/10/10 05:33:43;;;;;;;2.08;0.85;;;;;;;14.12;46.99;100429.78;4493413;31;33853;-66
2022/10/10 05:36:12;;;;;;;0.47;0.47;;;;;;;14.38;46.07;100432.25;4483634;31;34010;-66
2022/10/10 05:38:40;;;;;;;2.60;1.65;;;;;;;14.59;45.74;100437.81;4495559;31;34918;-66
2022/10/10 05:41:08;;;;;;;20.17;1.83;;;;;;;14.53;45.53;100436.44;4494412;31;32198;-66
2022/10/10 05:43:35;;;;;;;2.45;1.50;;;;;;;14.52;47.61;100434.75;4485417;31;33702;-66
2022/10/10 05:46:04;;;;;;;9.35;1.40;;;;;;;14.51;45.32;100435.75;4479749;31;33469;-66
2022/10/10 05:48:31;;;;;;;3.97;1.40;;;;;;;14.57;45.48;100437.06;4491991;31;32889;-66
2022/10/10 05:50:59;;;;;;;3.60;1.52;;;;;;;14.27;46.50;100435.81;4494729;31;34414;-66
2022/10/10 05:53:29;;;;;;;0.82;0.82;;;;;;;14.34;45.87;100438.88;4496564;31;33950;-66
2022/10/10 05:55:56;;;;;;;1.90;1.00;;;;;;;14.44;46.33;100440.72;4496998;31;33694;-67
2022/10/10 05:58:25;;;;;;;1.73;0.95;;;;;;;14.56;45.65;100435.34;4482731;31;32870;-66
2022/10/10 06:00:53;;;;;;;4.15;1.77;;;;;;;14.68;45.49;100440.63;4486487;31;35139;-65
2022/10/10 06:03:20;;;;;;;1.87;1.02;;;;;;;14.35;46.67;100443.28;4495092;31;34950;-65
2022/10/10 06:05:50;;;;;;;3.10;1.83;;;;;;;14.79;45.22;100449.66;4497955;31;35250;-65
2022/10/10 06:08:17;;;;;;;7.93;1.70;;;;;;;14.42;46.80;100449.91;4494377;31;32619;-66
2022/10/10 06:10:46;;;;;;;1.08;0.85;;;;;;;14.81;45.70;100448.56;4494828;31;33448;-66
2022/10/10 06:13:15;;;;;;;1.55;1.08;;;;;;;14.83;45.06;100453.81;4497622;31;34632;-66
2022/10/10 06:15:51;;;;;;;1.48;0.95;;;;;;;14.46;45.90;100440.59;4500722;31;33895;-67
2022/10/10 06:18:18;;;;;;;2.62;1.17;;;;;;;14.34;46.56;100449.66;4492924;31;33902;-66
2022/10/10 06:20:46;;;;;;;1.30;1.00;;;;;;;14.39;46.03;100437.53;4494116;31;32146;-66
2022/10/10 06:23:13;;;;;;;1.48;1.00;;;;;;;14.57;45.51;100435.22;4488871;31;32518;-67
2022/10/10 06:25:41;;;;;;;2.58;1.27;;;;;;;14.17;46.28;100435.69;4496192;31;33989;-67
2022/10/10 06:28:09;;;;;;;1.45;0.82;;;;;;;14.25;46.72;100439.59;4491468;31;33713;-66
2022/10/10 06:30:43;;;;;;;3.53;1.50;;;;;;;14.48;45.63;100441.34;4487767;31;32120;-66
2022/10/10 06:33:11;;;;;;;1.15;1.05;;;;;;;14.58;46.24;100445.03;4495672;31;33879;-67
2022/10/10 06:35:47;;;;;;;2.92;0.80;;;;;;;14.43;46.03;100439.00;4497071;31;33755;-66
2022/10/10 06:38:15;;;;;;;4.15;1.08;;;;;;;14.58;45.32;100434.25;4496731;31;33995;-67
2022/10/10 06:40:44;;;;;;;2.30;1.42;;;;;;;14.71;45.52;100439.50;4499132;31;34400;-65
2022/10/10 06:43:13;;;;;;;1.00;0.90;;;;;;;14.90;44.79;100441.56;4498573;31;32584;-65
2022/10/10 06:45:43;;;;;;;1.45;0.95;;;;;;;14.62;44.41;100437.56;4490978;31;32442;-65
2022/10/10 06:48:12;;;;;;;1.60;1.20;;;;;;;14.55;45.14;100439.03;4488662;31;32535;-65
2022/10/10 06:50:41;;;;;;;3.75;1.27;;;;;;;14.10;45.93;100445.22;4499022;31;32560;-66
2022/10/10 06:53:08;;;;;;;1.90;0.95;;;;;;;13.80;46.55;100445.75;4496689;31;34793;-65
2022/10/10 06:55:36;;;;;;;0.73;0.65;;;;;;;14.02;45.90;100447.66;4496974;31;34113;-65
2022/10/10 06:58:03;;;;;;;1.60;1.05;;;;;;;14.37;45.81;100444.88;4496486;31;33823;-64
2022/10/10 07:00:31;;;;;;;1.70;1.35;;;;;;;14.64;45.02;100446.38;4492644;31;31899;-65
2022/10/10 07:02:58;;;;;;;1.55;1.37;;;;;;;14.57;44.81;100446.00;4494049;31;34678;-64
2022/10/10 07:05:26;;;;;;;1.48;1.25;;;;;;;14.02;46.18;100442.25;4496949;31;32865;-64
2022/10/10 07:07:53;;;;;;;0.68;0.68;;;;;;;13.91;47.12;100447.63;4499322;31;33650;-66
2022/10/10 07:10:21;;;;;;;5.30;1.85;;;;;;;14.09;46.43;100445.34;4497504;31;34492;-66
2022/10/10 07:12:48;;;;;;;1.83;1.27;;;;;;;14.08;46.20;100454.41;4499378;31;32536;-65
2022/10/10 07:15:16;;;;;;;0.70;0.70;;;;;;;14.42;45.45;100450.75;4485675;31;33644;-64
2022/10/10 07:17:44;;;;;;;0.85;0.75;;;;;;;14.49;45.28;100445.75;4496758;31;34017;-64
2022/10/10 07:20:15;;;;;;;1.08;0.77;;;;;;;14.57;46.32;100446.00;4498351;31;32088;-65
2022/10/10 07:22:43;;;;;;;0.68;0.68;;;;;;;14.59;45.90;100448.59;4487073;31;33606;-65
2022/10/10 07:25:10;;;;;;;3.10;1.30;;;;;;;14.32;45.91;100452.47;4497739;31;35229;-64
2022/10/10 07:27:38;;;;;;;2.80;0.85;;;;;;;14.62;44.98;100453.72;4497974;31;32782;-64
2022/10/10 07:30:06;;;;;;;1.20;0.88;;;;;;;15.05;44.59;100450.22;4496030;31;32314;-64
2022/10/10 07:32:33;;;;;;;1.27;0.70;;;;;;;14.80;44.95;100445.97;4495340;31;35082;-65
2022/10/10 07:35:01;;;;;;;1.35;0.88;;;;;;;14.83;44.92;100448.41;4493149;31;33975;-65
2022/10/10 07:37:28;;;;;;;2.75;1.48;;;;;;;14.43;45.49;100446.22;4495658;31;34010;-64
2022/10/10 07:39:56;;;;;;;1.45;1.15;;;;;;;14.64;45.43;100454.47;4491812;31;33963;-64
2022/10/10 07:42:24;;;;;;;0.80;0.73;;;;;;;14.80;45.79;100449.56;4494561;31;33853;-64
2022/10/10 07:44:51;;;;;;;5.93;1.83;;;;;;;14.74;45.08;100449.19;4494094;31;32792;-64
2022/10/10 07:47:19;;;;;;;1.77;1.12;;;;;;;14.80;46.02;100443.28;4496446;31;35059;-64
2022/10/10 07:49:46;;;;;;;1.45;1.10;;;;;;;15.01;45.13;100446.94;4498380;31;33336;-64
2022/10/10 07:52:14;;;;;;;2.00;1.17;;;;;;;15.39;44.52;100445.59;4498362;31;33746;-64
2022/10/10 07:54:42;;;;;;;2.28;1.45;;;;;;;14.86;44.61;100440.09;4498148;31;34027;-65
2022/10/10 07:57:09;;;;;;;1.65;0.77;;;;;;;14.61;45.58;100444.78;4496297;31;34244;-65
2022/10/10 07:59:39;;;;;;;2.45;1.17;;;;;;;15.27;45.11;100452.00;4497003;31;32178;-64
2022/10/10 08:02:08;;;;;;;1.98;1.33;;;;;;;15.25;44.45;100449.44;4497613;31;34096;-64
2022/10/10 08:04:36;;;;;;;1.62;1.12;;;;;;;15.06;44.54;100444.72;4495324;31;32882;-63
2022/10/10 08:07:03;;;;;;;2.20;1.12;;;;;;;15.11;45.25;100442.47;4498702;31;34666;-65
2022/10/10 08:09:31;;;;;;;1.40;1.30;;;;;;;15.09;44.66;100441.78;4496967;31;31961;-64
2022/10/10 08:11:59;;;;;;;1.73;1.08;;;;;;;15.55;44.32;100446.00;4497430;31;33642;-65
2022/10/10 08:14:26;;;;;;;2.75;1.23;;;;;;;15.09;45.11;100438.22;4496917;31;32302;-65
2022/10/10 08:16:54;;;;;;;1.52;1.10;;;;;;;15.24;45.40;100436.06;4498220;31;33832;-64
2022/10/10 08:19:21;;;;;;;2.35;1.60;;;;;;;15.85;43.48;100444.41;4487177;31;34598;-65
2022/10/10 08:21:49;;;;;;;2.45;1.83;;;;;;;15.58;44.30;100440.34;4497131;31;33684;-66
2022/10/10 08:24:16;;;;;;;2.08;0.88;;;;;;;15.48;44.03;100438.56;4499619;31;33330;-65
2022/10/10 08:26:44;;;;;;;3.10;1.48;;;;;;;15.10;45.25;100451.56;4489134;31;35180;-64
2022/10/10 08:29:12;;;;;;;2.25;1.20;;;;;;;14.80;45.64;100429.81;4487896;31;33197;-65
2022/10/10 08:31:39;;;;;;;1.17;1.00;;;;;;;15.30;45.33;100430.16;4494287;31;33877;-64
2022/10/10 08:34:08;;;;;;;2.75;1.15;;;;;;;15.63;45.03;100426.47;4496024;31;34113;-65
2022/10/10 08:36:35;;;;;;;2.08;1.12;;;;;;;15.70;44.24;100426.84;4494564;31;33783;-66
2022/10/10 08:39:03;;;;;;;2.40;1.58;;;;;;;15.75;44.57;100427.31;4486197;31;33462;-65
2022/10/10 08:41:40;;;;;;;4.15;1.85;;;;;;;15.79;44.05;100421.53;4490094;31;32454;-66
2022/10/10 08:44:20;;;;;;;2.00;1.42;;;;;;;15.96;43.16;100424.59;4483598;31;34927;-66
2022/10/10 08:47:03;;;;;;;2.25;1.45;;;;;;;15.75;43.26;100413.81;4482307;31;33693;-67
2022/10/10 08:49:38;;;;;;;1.92;0.82;;;;;;;15.86;42.34;100418.28;4490733;31;34333;-66
2022/10/10 08:52:12;;;;;;;1.63;0.80;;;;;;;15.93;42.63;100406.81;4482359;31;32596;-67
2022/10/10 08:54:40;;;;;;;2.67;0.77;;;;;;;15.94;42.26;100418.47;4483429;32;35509;-67
2022/10/10 08:57:23;;;;;;;2.05;1.05;;;;;;;16.35;41.24;100405.91;4497853;31;33738;-66
2022/10/10 08:59:53;;;;;;;1.65;1.20;;;;;;;15.93;41.69;100401.44;4485479;31;33268;-66
2022/10/10 09:02:47;;;;;;;5.57;1.65;;;;;;;16.14;40.71;100403.22;4487577;31;33845;-66
2022/10/10 09:05:51;;;;;;;6.68;1.00;;;;;;;16.03;41.33;100412.28;4483893;31;33828;-66
2022/10/10 09:08:28;;;;;;;0.52;0.50;;;;;;;16.32;40.77;100415.12;4496744;31;33512;-66
2022/10/10 09:11:09;;;;;;;1.02;0.80;;;;;;;16.31;40.37;100405.31;4496168;31;34544;-66
2022/10/10 09:14:04;;;;;;;1.25;0.82;;;;;;;15.91;41.18;100400.69;4484896;32;32838;-65
2022/10/10 09:17:20;;;;;;;2.72;0.82;;;;;;;16.10;40.49;100404.50;4489155;31;32712;-65
2022/10/10 09:19:57;;;;;;;4.78;1.33;;;;;;;16.66;40.24;100409.41;4471448;31;35017;-65
2022/10/10 09:22:30;;;;;;;1.00;0.68;;;;;;;16.65;39.45;100403.16;4493243;31;33431;-66
2022/10/10 09:25:20;;;;;;;3.30;1.40;;;;;;;16.55;39.83;100399.56;4501440;31;33615;-65
2022/10/10 09:28:00;;;;;;;1.45;0.73;;;;;;;16.83;39.84;100399.84;4484567;31;35204;-64
2022/10/10 09:30:30;;;;;;;1.30;0.77;;;;;;;16.67;39.47;100400.31;4484231;31;34170;-66
2022/10/10 09:33:27;;;;;;;2.37;0.95;;;;;;;16.53;39.68;100399.72;4494320;31;32942;-66
2022/10/10 09:35:57;;;;;;;5.55;1.80;;;;;;;16.56;40.71;100398.56;4476603;31;35073;-67
2022/10/10 09:38:40;;;;;;;3.47;1.10;;;;;;;17.14;39.57;100403.28;4495979;31;34991;-67
2022/10/10 09:41:27;;;;;;;3.50;1.20;;;;;;;16.90;38.75;100401.84;4496166;31;33901;-67
2022/10/10 09:43:56;;;;;;;2.97;1.27;;;;;;;17.20;38.73;100402.72;4490885;31;32821;-66
2022/10/10 09:46:24;;;;;;;2.28;0.88;;;;;;;17.07;38.94;100399.44;4497323;31;34069;-67
2022/10/10 09:48:53;;;;;;;1.98;1.30;;;;;;;16.94;38.79;100395.12;4490586;31;32925;-67
2022/10/10 09:51:21;;;;;;;1.27;0.70;;;;;;;16.96;38.30;100397.72;4484001;31;34086;-67
2022/10/10 09:53:49;;;;;;;3.05;1.00;;;;;;;16.76;38.43;100399.53;4493043;31;33378;-66
2022/10/10 09:56:37;;;;;;;1.15;0.93;;;;;;;17.17;38.24;100390.34;4498252;31;34059;-67
2022/10/10 09:59:05;;;;;;;1.73;1.08;;;;;;;16.37;39.87;100391.28;4495611;31;35046;-67
2022/10/10 10:01:32;;;;;;;1.92;1.08;;;;;;;16.61;39.13;100381.97;4488109;31;35107;-67
2022/10/10 10:04:17;;;;;;;1.77;1.00;;;;;;;16.79;39.24;100383.03;4488313;31;33467;-67
2022/10/10 10:07:19;;;;;;;1.80;1.12;;;;;;;17.28;38.02;100383.09;4489081;31;33757;-66
2022/10/10 10:09:49;;;;;;;3.58;1.35;;;;;;;17.30;37.67;100383.78;4472853;32;34088;-66
2022/10/10 10:12:21;;;;;;;2.25;0.90;;;;;;;17.43;37.00;100378.94;4482926;31;33812;-66
2022/10/10 10:14:51;;;;;;;3.30;1.52;;;;;;;17.30;37.14;100397.31;4493730;31;34464;-66
2022/10/10 10:17:21;;;;;;;2.03;0.95;;;;;;;17.55;36.34;100380.50;4495797;31;34138;-65
2022/10/10 10:19:49;;;;;;;4.30;1.08;;;;;;;17.78;36.94;100382.91;4495456;31;34926;-65
2022/10/10 10:22:31;;;;;;;1.77;1.05;;;;;;;17.18;37.44;100375.81;4484238;31;33778;-65
2022/10/10 10:25:30;;;;;;;1.75;0.98;;;;;;;17.74;37.20;100378.75;4499251;31;33416;-65
2022/10/10 10:28:10;;;;;;;4.07;1.50;;;;;;;17.69;38.29;100376.50;4500285;31;32708;-65
2022/10/10 10:30:39;;;;;;;1.23;0.95;;;;;;;18.03;36.66;100368.75;4495064;31;32955;-65
2022/10/10 10:33:44;;;;;;;1.70;0.98;;;;;;;18.05;36.85;100366.75;4492922;31;33792;-65
2022/10/10 10:36:45;;;;;;;2.45;1.20;;;;;;;18.05;36.66;100364.03;4492671;31;33379;-65
2022/10/10 10:39:34;;;;;;;2.50;1.10;;;;;;;18.24;36.53;100371.25;4497491;31;34057;-65
2022/10/10 10:42:06;;;;;;;3.55;1.83;;;;;;;18.11;36.30;100362.59;4490537;31;34828;-65
2022/10/10 10:45:16;;;;;;;2.30;1.27;;;;;;;18.20;35.89;100353.56;4498202;31;33810;-67
2022/10/10 10:47:54;;;;;;;3.25;1.15;;;;;;;18.06;36.66;100351.34;4445226;32;34011;-65
2022/10/10 10:50:44;;;;;;;1.83;0.77;;;;;;;18.29;36.99;100347.25;4491709;31;34949;-66
2022/10/10 10:53:27;;;;;;;0.95;0.82;;;;;;;18.27;35.64;100343.00;4484099;31;34019;-65
2022/10/10 10:56:45;;;;;;;2.62;0.70;;;;;;;17.89;36.53;100343.00;4486002;31;34146;-65
2022/10/10 10:59:20;;;;;;;2.17;1.02;;;;;;;18.63;35.18;100338.50;4473237;32;33535;-65
2022/10/10 11:02:16;;;;;;;1.35;0.90;;;;;;;18.81;33.99;100334.00;4470513;32;33879;-66
2022/10/10 11:05:24;;;;;;;1.75;1.15;;;;;;;18.20;33.89;100337.28;4482545;31;33866;-64
2022/10/10 11:08:35;;;;;;;2.28;1.12;;;;;;;18.95;34.15;100329.91;4485474;31;32811;-65
2022/10/10 11:11:17;;;;;;;1.20;0.90;;;;;;;18.69;34.08;100323.50;4492537;31;34244;-65
2022/10/10 11:13:51;;;;;;;1.65;1.15;;;;;;;19.02;34.19;100328.28;4493450;31;34914;-65
2022/10/10 11:16:26;;;;;;;3.28;1.00;;;;;;;18.89;33.60;100319.66;4497521;31;34328;-65
2022/10/10 11:19:13;;;;;;;4.00;1.03;;;;;;;19.19;33.28;100318.41;4493472;31;34761;-65
2022/10/10 11:21:53;;;;;;;5.35;2.03;;;;;;;19.37;32.70;100314.84;4493167;31;34485;-66
2022/10/10 11:24:38;;;;;;;2.75;1.42;;;;;;;19.43;31.98;100308.78;4484549;31;35256;-65
2022/10/10 11:27:13;;;;;;;4.10;1.95;;;;;;;18.97;33.08;100308.91;4481857;31;35181;-66
2022/10/10 11:29:52;;;;;;;2.33;1.30;;;;;;;19.08;32.43;100310.53;4498906;31;32169;-65
2022/10/10 11:32:27;;;;;;;2.75;1.00;;;;;;;19.31;32.11;100300.88;4492238;31;34480;-65
2022/10/10 11:35:02;;;;;;;4.47;1.83;;;;;;;19.06;32.20;100298.97;4485239;31;33556;-65
2022/10/10 11:37:33;;;;;;;2.25;1.50;;;;;;;18.94;32.74;100297.50;4481154;31;33132;-65
2022/10/10 11:40:04;;;;;;;3.67;1.58;;;;;;;18.53;33.21;100286.22;4484800;31;34034;-66
2022/10/10 11:42:36;;;;;;;1.95;1.10;;;;;;;18.70;33.42;100288.09;4495614;31;34920;-65
2022/10/10 11:45:29;;;;;;;2.42;1.20;;;;;;;18.88;33.32;100287.28;4484309;31;34359;-65
2022/10/10 11:48:20;;;;;;;2.17;1.55;;;;;;;18.92;33.53;100278.69;4482598;31;34113;-66
2022/10/10 11:50:53;;;;;;;1.15;0.82;;;;;;;19.03;33.44;100278.41;4483258;31;34354;-67